首页
METAR-TAF:

METAR-TAF

机场 :

Branson, 密蘇里州, 美国

纬度: 36-31-55N, 经度: 093-12-02W, 海拔: 397米

当前天气观测

该预报发布于12分钟前的09:55 UTC
风速3节,风向
温度 7°C
湿度 100%
气压 1018 hPa
能見度: 0.8公里
阴天层高于200英尺

METAR: KBBG 050955Z AUTO 10003KT 1/2SM OVC002 07/07 A3007 RMK AO2 PWINO PNO

时间: 05:07 (10:07 UTC)

预报

该预报发布于4小时和27分钟前的05:40 UTC
预报有效从05日的 06点(UTC)到 06日的 06点(UTC)
风速节,风向
能見度: 0.8公里
阴天层高于200英尺
小毛毛雨, 雾
从 05日的 1000点(UTC)
风速3节,风向多变
能見度: 0.4公里
层高于200英尺
从 05日的 1600点(UTC)
风速3节,风向多变
能見度: 4.8公里
阴天层高于600英尺
轻雾
从 05日的 1800点(UTC)
风速3节,风向多变
能見度: 10公里
阴天层高于900英尺
从 05日的 2200点(UTC)
风速3节,风向多变
能見度: 10公里
阴天层高于1400英尺

TAF: KBBG 050540Z 0506/0606 00000KT 1/2SM -DZ FG OVC002 FM051000 VRB03KT 1/4SM FG VV002 FM051600 VRB03KT 3SM BR OVC006 FM051800 VRB03KT P6SM OVC009 FM052200 VRB03KT P6SM OVC014

超过4000个机场的气象观测和天气预报(METAR&TAF报告)。

可查询的气象台以黄色和红色小点在地图上表示。

将鼠标移到小点上方,可查看气象台名称。

然后点击查看天气观测和预报。

如需切换地图:点击带黑十字的绿色按钮放大地图;点击带横线的绿色按钮缩小地图;或者点击绿色箭头查看邻近地区的地图。


METAR-TAF: